sensor_id;sensor_type;location;lat;lon;timestamp;pressure;altitude;pressure_sealevel;temperature;humidity
47753;BME280;2038;51.728;6.674;2024-01-30T00:00:03;77892.44;;;-141.64;83.32
47753;BME280;2038;51.728;6.674;2024-01-30T00:02:30;77900.25;;;-141.64;83.42
47753;BME280;2038;51.728;6.674;2024-01-30T00:04:57;77894.38;;;-141.64;82.96
47753;BME280;2038;51.728;6.674;2024-01-30T00:07:24;77886.56;;;-141.64;83.62
47753;BME280;2038;51.728;6.674;2024-01-30T00:09:50;77882.66;;;-141.64;83.39
47753;BME280;2038;51.728;6.674;2024-01-30T00:12:16;77872.91;;;-141.64;82.97
47753;BME280;2038;51.728;6.674;2024-01-30T00:14:43;77867.03;;;-141.64;82.96
47753;BME280;2038;51.728;6.674;2024-01-30T00:17:09;77869.00;;;-141.64;82.35
47753;BME280;2038;51.728;6.674;2024-01-30T00:19:35;77874.84;;;-141.64;82.82
47753;BME280;2038;51.728;6.674;2024-01-30T00:22:01;77880.72;;;-141.64;82.78
47753;BME280;2038;51.728;6.674;2024-01-30T00:24:28;77880.72;;;-141.64;82.85
47753;BME280;2038;51.728;6.674;2024-01-30T00:26:54;77882.66;;;-141.64;83.02
47753;BME280;2038;51.728;6.674;2024-01-30T00:29:20;77880.72;;;-141.64;83.25
47753;BME280;2038;51.728;6.674;2024-01-30T00:31:48;77884.63;;;-141.64;83.06
47753;BME280;2038;51.728;6.674;2024-01-30T00:34:14;77892.44;;;-141.64;83.16
47753;BME280;2038;51.728;6.674;2024-01-30T00:36:41;77902.19;;;-141.64;83.08
47753;BME280;2038;51.728;6.674;2024-01-30T00:39:07;77894.38;;;-141.64;83.36
47753;BME280;2038;51.728;6.674;2024-01-30T00:41:35;77902.19;;;-141.64;83.52
47753;BME280;2038;51.728;6.674;2024-01-30T00:44:01;77908.06;;;-141.64;83.36
47753;BME280;2038;51.728;6.674;2024-01-30T00:46:27;77906.09;;;-141.64;83.36
47753;BME280;2038;51.728;6.674;2024-01-30T00:48:53;77917.81;;;-141.64;83.79
47753;BME280;2038;51.728;6.674;2024-01-30T00:51:19;77917.81;;;-141.64;83.33
47753;BME280;2038;51.728;6.674;2024-01-30T00:53:46;77921.72;;;-141.64;83.47
47753;BME280;2038;51.728;6.674;2024-01-30T00:56:12;77933.44;;;-141.64;83.71
47753;BME280;2038;51.728;6.674;2024-01-30T00:58:39;77929.53;;;-141.64;84.09
47753;BME280;2038;51.728;6.674;2024-01-30T01:01:05;77933.44;;;-141.64;83.62
47753;BME280;2038;51.728;6.674;2024-01-30T01:03:33;77939.31;;;-141.64;84.13
47753;BME280;2038;51.728;6.674;2024-01-30T01:05:59;77941.25;;;-141.64;84.08
47753;BME280;2038;51.728;6.674;2024-01-30T01:08:25;77943.22;;;-141.64;83.71
47753;BME280;2038;51.728;6.674;2024-01-30T01:10:52;77939.31;;;-141.64;84.13
47753;BME280;2038;51.728;6.674;2024-01-30T01:13:18;77939.31;;;-141.64;83.65
47753;BME280;2038;51.728;6.674;2024-01-30T01:15:45;77943.22;;;-141.64;84.02
47753;BME280;2038;51.728;6.674;2024-01-30T01:18:11;77933.44;;;-141.64;83.73
47753;BME280;2038;51.728;6.674;2024-01-30T01:20:37;77935.41;;;-141.64;83.97
47753;BME280;2038;51.728;6.674;2024-01-30T01:23:03;77941.25;;;-141.64;83.85
47753;BME280;2038;51.728;6.674;2024-01-30T01:25:30;77943.22;;;-141.64;83.99
47753;BME280;2038;51.728;6.674;2024-01-30T01:27:56;77949.06;;;-141.64;84.00
47753;BME280;2038;51.728;6.674;2024-01-30T01:30:23;77954.94;;;-141.64;84.06
47753;BME280;2038;51.728;6.674;2024-01-30T01:32:49;77958.84;;;-141.64;84.71
47753;BME280;2038;51.728;6.674;2024-01-30T01:35:23;77954.94;;;-141.64;84.71
47753;BME280;2038;51.728;6.674;2024-01-30T01:37:53;77954.94;;;-141.64;84.35
47753;BME280;2038;51.728;6.674;2024-01-30T01:40:24;77960.78;;;-141.64;84.11
47753;BME280;2038;51.728;6.674;2024-01-30T01:42:52;77958.84;;;-141.64;84.19
47753;BME280;2038;51.728;6.674;2024-01-30T01:45:20;77958.84;;;-141.64;84.75
47753;BME280;2038;51.728;6.674;2024-01-30T01:47:50;77958.84;;;-141.64;84.70
47753;BME280;2038;51.728;6.674;2024-01-30T01:50:18;77954.94;;;-141.64;84.83
47753;BME280;2038;51.728;6.674;2024-01-30T01:52:49;77949.06;;;-141.64;84.25
47753;BME280;2038;51.728;6.674;2024-01-30T01:55:17;77951.03;;;-141.64;84.60
47753;BME280;2038;51.728;6.674;2024-01-30T01:57:51;77943.22;;;-141.64;84.37
47753;BME280;2038;51.728;6.674;2024-01-30T02:00:19;77951.03;;;-141.64;85.07
47753;BME280;2038;51.728;6.674;2024-01-30T02:02:46;77947.13;;;-141.64;84.64
47753;BME280;2038;51.728;6.674;2024-01-30T02:05:12;77958.84;;;-141.64;84.83
47753;BME280;2038;51.728;6.674;2024-01-30T02:07:40;77958.84;;;-141.64;85.34
47753;BME280;2038;51.728;6.674;2024-01-30T02:10:08;77937.34;;;-141.64;85.15
47753;BME280;2038;51.728;6.674;2024-01-30T02:12:35;77937.34;;;-141.64;84.85
47753;BME280;2038;51.728;6.674;2024-01-30T02:15:02;77939.31;;;-141.64;85.03
47753;BME280;2038;51.728;6.674;2024-01-30T02:17:28;77939.31;;;-141.64;84.97
47753;BME280;2038;51.728;6.674;2024-01-30T02:19:54;77941.25;;;-141.64;84.81
47753;BME280;2038;51.728;6.674;2024-01-30T02:22:21;77949.06;;;-141.64;84.97
47753;BME280;2038;51.728;6.674;2024-01-30T02:24:48;77949.06;;;-141.64;84.91
47753;BME280;2038;51.728;6.674;2024-01-30T02:27:14;77943.22;;;-141.64;84.99
47753;BME280;2038;51.728;6.674;2024-01-30T02:29:41;77937.34;;;-141.64;85.28
47753;BME280;2038;51.728;6.674;2024-01-30T02:32:07;77933.44;;;-141.64;84.88
47753;BME280;2038;51.728;6.674;2024-01-30T02:34:33;77921.72;;;-141.64;84.66
47753;BME280;2038;51.728;6.674;2024-01-30T02:37:00;77919.78;;;-141.64;84.97
47753;BME280;2038;51.728;6.674;2024-01-30T02:39:26;77913.91;;;-141.64;84.53
47753;BME280;2038;51.728;6.674;2024-01-30T02:41:52;77911.97;;;-141.64;84.20
47753;BME280;2038;51.728;6.674;2024-01-30T02:44:18;77917.81;;;-141.64;84.52
47753;BME280;2038;51.728;6.674;2024-01-30T02:46:45;77925.63;;;-141.64;84.83
47753;BME280;2038;51.728;6.674;2024-01-30T02:49:12;77929.53;;;-141.64;84.91
47753;BME280;2038;51.728;6.674;2024-01-30T02:51:38;77925.63;;;-141.64;84.63
47753;BME280;2038;51.728;6.674;2024-01-30T02:54:04;77927.59;;;-141.64;84.74
47753;BME280;2038;51.728;6.674;2024-01-30T02:56:30;77927.59;;;-141.64;85.08
47753;BME280;2038;51.728;6.674;2024-01-30T02:58:56;77919.78;;;-141.64;84.96
47753;BME280;2038;51.728;6.674;2024-01-30T03:01:23;77911.97;;;-141.64;85.38
47753;BME280;2038;51.728;6.674;2024-01-30T03:03:50;77908.06;;;-141.64;84.79
47753;BME280;2038;51.728;6.674;2024-01-30T03:06:16;77900.25;;;-141.64;85.08
47753;BME280;2038;51.728;6.674;2024-01-30T03:08:43;77886.56;;;-141.64;84.92
47753;BME280;2038;51.728;6.674;2024-01-30T03:11:09;77872.91;;;-141.64;84.25
47753;BME280;2038;51.728;6.674;2024-01-30T03:13:36;77876.81;;;-141.64;84.41
47753;BME280;2038;51.728;6.674;2024-01-30T03:16:02;77870.94;;;-141.64;84.78
47753;BME280;2038;51.728;6.674;2024-01-30T03:18:28;77870.94;;;-141.64;84.79
47753;BME280;2038;51.728;6.674;2024-01-30T03:20:54;77863.13;;;-141.64;84.59
47753;BME280;2038;51.728;6.674;2024-01-30T03:23:21;77865.09;;;-141.64;84.48
47753;BME280;2038;51.728;6.674;2024-01-30T03:25:47;77861.19;;;-141.64;84.39
47753;BME280;2038;51.728;6.674;2024-01-30T03:28:13;77849.47;;;-141.64;84.27
47753;BME280;2038;51.728;6.674;2024-01-30T03:30:39;77839.69;;;-141.64;84.39
47753;BME280;2038;51.728;6.674;2024-01-30T03:33:05;77835.78;;;-141.64;84.06
47753;BME280;2038;51.728;6.674;2024-01-30T03:35:32;77816.25;;;-141.64;83.58
47753;BME280;2038;51.728;6.674;2024-01-30T03:37:58;77816.25;;;-141.64;83.36
47753;BME280;2038;51.728;6.674;2024-01-30T03:40:24;77808.44;;;-141.64;83.53
47753;BME280;2038;51.728;6.674;2024-01-30T03:42:50;77810.41;;;-141.64;83.25
47753;BME280;2038;51.728;6.674;2024-01-30T03:45:16;77810.41;;;-141.64;83.05
47753;BME280;2038;51.728;6.674;2024-01-30T03:47:45;77820.16;;;-141.64;83.22
47753;BME280;2038;51.728;6.674;2024-01-30T03:50:11;77822.13;;;-141.64;83.26
47753;BME280;2038;51.728;6.674;2024-01-30T03:52:37;77822.13;;;-141.64;83.48
47753;BME280;2038;51.728;6.674;2024-01-30T03:55:04;77831.88;;;-141.64;82.88
47753;BME280;2038;51.728;6.674;2024-01-30T03:57:31;77831.88;;;-141.64;83.28
47753;BME280;2038;51.728;6.674;2024-01-30T03:59:57;77827.97;;;-141.64;82.64
47753;BME280;2038;51.728;6.674;2024-01-30T04:02:23;77827.97;;;-141.64;82.96
47753;BME280;2038;51.728;6.674;2024-01-30T04:04:50;77827.97;;;-141.64;82.89
47753;BME280;2038;51.728;6.674;2024-01-30T04:07:16;77827.97;;;-141.64;83.25
47753;BME280;2038;51.728;6.674;2024-01-30T04:09:42;77827.97;;;-141.64;83.29
47753;BME280;2038;51.728;6.674;2024-01-30T04:12:09;77820.16;;;-141.64;83.31
47753;BME280;2038;51.728;6.674;2024-01-30T04:14:37;77822.13;;;-141.64;83.61
47753;BME280;2038;51.728;6.674;2024-01-30T04:17:04;77816.25;;;-141.64;83.42
47753;BME280;2038;51.728;6.674;2024-01-30T04:19:30;77802.59;;;-141.64;82.86
47753;BME280;2038;51.728;6.674;2024-01-30T04:21:56;77810.41;;;-141.64;82.79
47753;BME280;2038;51.728;6.674;2024-01-30T04:24:22;77808.44;;;-141.64;83.25
47753;BME280;2038;51.728;6.674;2024-01-30T04:26:49;77806.50;;;-141.64;83.16
47753;BME280;2038;51.728;6.674;2024-01-30T04:29:15;77794.78;;;-141.64;83.13
47753;BME280;2038;51.728;6.674;2024-01-30T04:31:41;77796.72;;;-141.64;82.81
47753;BME280;2038;51.728;6.674;2024-01-30T04:34:07;77794.78;;;-141.64;82.66
47753;BME280;2038;51.728;6.674;2024-01-30T04:36:33;77790.88;;;-141.64;82.27
47753;BME280;2038;51.728;6.674;2024-01-30T04:39:00;77792.81;;;-141.64;82.07
47753;BME280;2038;51.728;6.674;2024-01-30T04:41:26;77794.78;;;-141.64;82.75
47753;BME280;2038;51.728;6.674;2024-01-30T04:43:57;77800.63;;;-141.64;82.22
47753;BME280;2038;51.728;6.674;2024-01-30T04:46:23;77806.50;;;-141.64;82.44
47753;BME280;2038;51.728;6.674;2024-01-30T04:48:49;77810.41;;;-141.64;82.52
47753;BME280;2038;51.728;6.674;2024-01-30T04:51:15;77814.31;;;-141.64;82.93
47753;BME280;2038;51.728;6.674;2024-01-30T04:53:41;77814.31;;;-141.64;83.15
47753;BME280;2038;51.728;6.674;2024-01-30T04:56:08;77826.03;;;-141.64;83.13
47753;BME280;2038;51.728;6.674;2024-01-30T04:58:34;77827.97;;;-141.64;83.08
47753;BME280;2038;51.728;6.674;2024-01-30T05:01:00;77829.94;;;-141.64;83.29
47753;BME280;2038;51.728;6.674;2024-01-30T05:03:26;77835.78;;;-141.64;82.97
47753;BME280;2038;51.728;6.674;2024-01-30T05:05:53;77843.59;;;-141.64;83.58
47753;BME280;2038;51.728;6.674;2024-01-30T05:08:19;77839.69;;;-141.64;83.36
47753;BME280;2038;51.728;6.674;2024-01-30T05:10:45;77841.66;;;-141.64;83.69
47753;BME280;2038;51.728;6.674;2024-01-30T05:13:12;77837.75;;;-141.64;83.67
47753;BME280;2038;51.728;6.674;2024-01-30T05:15:39;77837.75;;;-141.64;83.77
47753;BME280;2038;51.728;6.674;2024-01-30T05:18:05;77826.03;;;-141.64;83.56
47753;BME280;2038;51.728;6.674;2024-01-30T05:20:32;77829.94;;;-141.64;83.33
47753;BME280;2038;51.728;6.674;2024-01-30T05:22:58;77818.22;;;-141.64;83.35
47753;BME280;2038;51.728;6.674;2024-01-30T05:25:24;77816.25;;;-141.64;83.66
47753;BME280;2038;51.728;6.674;2024-01-30T05:27:50;77810.41;;;-141.64;83.28
47753;BME280;2038;51.728;6.674;2024-01-30T05:30:16;77808.44;;;-141.64;83.51
47753;BME280;2038;51.728;6.674;2024-01-30T05:32:43;77808.44;;;-141.64;83.21
47753;BME280;2038;51.728;6.674;2024-01-30T05:35:10;77806.50;;;-141.64;83.47
47753;BME280;2038;51.728;6.674;2024-01-30T05:37:36;77806.50;;;-141.64;82.77
47753;BME280;2038;51.728;6.674;2024-01-30T05:40:02;77806.50;;;-141.64;82.97
47753;BME280;2038;51.728;6.674;2024-01-30T05:42:28;77806.50;;;-141.64;83.02
47753;BME280;2038;51.728;6.674;2024-01-30T05:44:55;77802.59;;;-141.64;82.82
47753;BME280;2038;51.728;6.674;2024-01-30T05:47:21;77802.59;;;-141.64;82.58
47753;BME280;2038;51.728;6.674;2024-01-30T05:49:47;77804.53;;;-141.64;83.29
47753;BME280;2038;51.728;6.674;2024-01-30T05:52:13;77808.44;;;-141.64;83.16
47753;BME280;2038;51.728;6.674;2024-01-30T05:54:41;77804.53;;;-141.64;83.02
47753;BME280;2038;51.728;6.674;2024-01-30T05:57:07;77786.97;;;-141.64;82.66
47753;BME280;2038;51.728;6.674;2024-01-30T05:59:33;77781.09;;;-141.64;82.56
47753;BME280;2038;51.728;6.674;2024-01-30T06:01:59;77779.13;;;-141.64;82.40
47753;BME280;2038;51.728;6.674;2024-01-30T06:04:26;77788.91;;;-141.64;82.93
47753;BME280;2038;51.728;6.674;2024-01-30T06:06:52;77783.03;;;-141.64;83.09
47753;BME280;2038;51.728;6.674;2024-01-30T06:09:18;77783.03;;;-141.64;82.94
47753;BME280;2038;51.728;6.674;2024-01-30T06:11:44;77777.19;;;-141.64;83.24
47753;BME280;2038;51.728;6.674;2024-01-30T06:14:11;77771.34;;;-141.64;82.87
47753;BME280;2038;51.728;6.674;2024-01-30T06:16:37;77761.56;;;-141.64;82.64
47753;BME280;2038;51.728;6.674;2024-01-30T06:19:03;77763.50;;;-141.64;82.93
47753;BME280;2038;51.728;6.674;2024-01-30T06:21:29;77761.56;;;-141.64;82.79
47753;BME280;2038;51.728;6.674;2024-01-30T06:23:57;77749.84;;;-141.64;82.73
47753;BME280;2038;51.728;6.674;2024-01-30T06:26:23;77742.03;;;-141.64;82.50
47753;BME280;2038;51.728;6.674;2024-01-30T06:28:50;77732.25;;;-141.64;82.60
47753;BME280;2038;51.728;6.674;2024-01-30T06:31:16;77726.41;;;-141.64;82.37
47753;BME280;2038;51.728;6.674;2024-01-30T06:33:42;77720.53;;;-141.64;82.17
47753;BME280;2038;51.728;6.674;2024-01-30T06:36:08;77724.47;;;-141.64;81.80
47753;BME280;2038;51.728;6.674;2024-01-30T06:38:35;77742.03;;;-141.64;82.58
47753;BME280;2038;51.728;6.674;2024-01-30T06:41:01;77749.84;;;-141.64;82.61
47753;BME280;2038;51.728;6.674;2024-01-30T06:43:27;77757.66;;;-141.64;82.65
47753;BME280;2038;51.728;6.674;2024-01-30T06:45:53;77749.84;;;-141.64;82.72
47753;BME280;2038;51.728;6.674;2024-01-30T06:48:19;77732.25;;;-141.64;82.38
47753;BME280;2038;51.728;6.674;2024-01-30T06:50:46;77732.25;;;-141.64;82.06
47753;BME280;2038;51.728;6.674;2024-01-30T06:53:13;77730.31;;;-141.64;82.23
47753;BME280;2038;51.728;6.674;2024-01-30T06:55:39;77730.31;;;-141.64;82.08
47753;BME280;2038;51.728;6.674;2024-01-30T06:58:06;77730.31;;;-141.64;81.87
47753;BME280;2038;51.728;6.674;2024-01-30T07:00:32;77732.25;;;-141.64;81.86
47753;BME280;2038;51.728;6.674;2024-01-30T07:02:58;77736.16;;;-141.64;82.24
47753;BME280;2038;51.728;6.674;2024-01-30T07:05:25;77732.25;;;-141.64;81.81
47753;BME280;2038;51.728;6.674;2024-01-30T07:07:51;77736.16;;;-141.64;82.04
47753;BME280;2038;51.728;6.674;2024-01-30T07:10:17;77732.25;;;-141.64;82.09
47753;BME280;2038;51.728;6.674;2024-01-30T07:12:43;77738.13;;;-141.64;82.06
47753;BME280;2038;51.728;6.674;2024-01-30T07:15:10;77732.25;;;-141.64;81.89
47753;BME280;2038;51.728;6.674;2024-01-30T07:17:36;77732.25;;;-141.64;81.69
47753;BME280;2038;51.728;6.674;2024-01-30T07:20:03;77726.41;;;-141.64;81.26
47753;BME280;2038;51.728;6.674;2024-01-30T07:22:30;77732.25;;;-141.64;81.69
47753;BME280;2038;51.728;6.674;2024-01-30T07:24:57;77732.25;;;-141.64;81.52
47753;BME280;2038;51.728;6.674;2024-01-30T07:27:23;77732.25;;;-141.64;81.78
47753;BME280;2038;51.728;6.674;2024-01-30T07:29:49;77728.34;;;-141.64;81.65
47753;BME280;2038;51.728;6.674;2024-01-30T07:32:15;77724.47;;;-141.64;81.29
47753;BME280;2038;51.728;6.674;2024-01-30T07:34:42;77730.31;;;-141.64;81.26
47753;BME280;2038;51.728;6.674;2024-01-30T07:37:08;77722.50;;;-141.64;81.38
47753;BME280;2038;51.728;6.674;2024-01-30T07:39:35;77745.94;;;-141.64;81.43
47753;BME280;2038;51.728;6.674;2024-01-30T07:42:01;77728.34;;;-141.64;81.83
47753;BME280;2038;51.728;6.674;2024-01-30T07:44:28;77734.22;;;-141.64;81.84
47753;BME280;2038;51.728;6.674;2024-01-30T07:46:54;77732.25;;;-141.64;81.82
47753;BME280;2038;51.728;6.674;2024-01-30T07:49:20;77730.31;;;-141.64;81.49
47753;BME280;2038;51.728;6.674;2024-01-30T07:51:47;77724.47;;;-141.64;81.44
47753;BME280;2038;51.728;6.674;2024-01-30T07:54:13;77730.31;;;-141.64;81.00
47753;BME280;2038;51.728;6.674;2024-01-30T07:56:39;77734.22;;;-141.64;81.75
47753;BME280;2038;51.728;6.674;2024-01-30T07:59:05;77734.22;;;-141.64;81.22
47753;BME280;2038;51.728;6.674;2024-01-30T08:01:31;77736.16;;;-141.64;81.07
47753;BME280;2038;51.728;6.674;2024-01-30T08:03:58;77730.31;;;-141.64;81.73
47753;BME280;2038;51.728;6.674;2024-01-30T08:06:24;77736.16;;;-141.64;81.14
47753;BME280;2038;51.728;6.674;2024-01-30T08:08:50;77738.13;;;-141.64;81.59
47753;BME280;2038;51.728;6.674;2024-01-30T08:11:20;77747.88;;;-141.64;81.42
47753;BME280;2038;51.728;6.674;2024-01-30T08:13:52;77747.88;;;-141.64;81.44
47753;BME280;2038;51.728;6.674;2024-01-30T08:16:18;77745.94;;;-141.64;81.43
47753;BME280;2038;51.728;6.674;2024-01-30T08:18:44;77740.09;;;-141.64;81.17
47753;BME280;2038;51.728;6.674;2024-01-30T08:21:11;77732.25;;;-141.64;81.41
47753;BME280;2038;51.728;6.674;2024-01-30T08:23:39;77722.50;;;-141.64;81.38
47753;BME280;2038;51.728;6.674;2024-01-30T08:26:06;77722.50;;;-141.64;81.43
47753;BME280;2038;51.728;6.674;2024-01-30T08:28:32;77716.63;;;-141.64;81.12
47753;BME280;2038;51.728;6.674;2024-01-30T08:30:58;77708.84;;;-141.64;81.37
47753;BME280;2038;51.728;6.674;2024-01-30T08:33:25;77714.69;;;-141.64;81.53
47753;BME280;2038;51.728;6.674;2024-01-30T08:35:51;77704.91;;;-141.64;81.63
47753;BME280;2038;51.728;6.674;2024-01-30T08:38:17;77708.84;;;-141.64;81.54
47753;BME280;2038;51.728;6.674;2024-01-30T08:40:43;77699.06;;;-141.64;81.44
47753;BME280;2038;51.728;6.674;2024-01-30T08:43:10;77695.16;;;-141.64;81.56
47753;BME280;2038;51.728;6.674;2024-01-30T08:45:36;77681.47;;;-141.64;81.37
47753;BME280;2038;51.728;6.674;2024-01-30T08:48:02;77679.53;;;-141.64;81.50
47753;BME280;2038;51.728;6.674;2024-01-30T08:50:29;77679.53;;;-141.64;81.45
47753;BME280;2038;51.728;6.674;2024-01-30T08:52:55;77683.44;;;-141.64;81.48
47753;BME280;2038;51.728;6.674;2024-01-30T08:55:22;77683.44;;;-141.64;81.35
47753;BME280;2038;51.728;6.674;2024-01-30T08:57:49;77677.56;;;-141.64;81.00
47753;BME280;2038;51.728;6.674;2024-01-30T09:00:15;77685.38;;;-141.64;81.59
47753;BME280;2038;51.728;6.674;2024-01-30T09:02:42;77681.47;;;-141.64;80.97
47753;BME280;2038;51.728;6.674;2024-01-30T09:05:08;77673.66;;;-141.64;80.94
47753;BME280;2038;51.728;6.674;2024-01-30T09:07:34;77669.75;;;-141.64;80.74
47753;BME280;2038;51.728;6.674;2024-01-30T09:10:01;77661.94;;;-141.64;80.42
47753;BME280;2038;51.728;6.674;2024-01-30T09:12:27;77656.09;;;-141.64;80.39
47753;BME280;2038;51.728;6.674;2024-01-30T09:14:53;77654.13;;;-141.64;80.12
47753;BME280;2038;51.728;6.674;2024-01-30T09:17:20;77640.47;;;-141.64;80.08
47753;BME280;2038;51.728;6.674;2024-01-30T09:19:46;77640.47;;;-141.64;79.79
47753;BME280;2038;51.728;6.674;2024-01-30T09:22:13;77642.41;;;-141.64;79.69
47753;BME280;2038;51.728;6.674;2024-01-30T09:24:39;77636.56;;;-141.64;79.65
47753;BME280;2038;51.728;6.674;2024-01-30T09:27:06;77632.66;;;-141.64;79.85
47753;BME280;2038;51.728;6.674;2024-01-30T09:29:32;77622.91;;;-141.64;79.75
47753;BME280;2038;51.728;6.674;2024-01-30T09:32:00;77613.13;;;-141.64;79.60
47753;BME280;2038;51.728;6.674;2024-01-30T09:34:26;77613.13;;;-141.64;79.41
47753;BME280;2038;51.728;6.674;2024-01-30T09:36:52;77605.31;;;-141.64;79.96
47753;BME280;2038;51.728;6.674;2024-01-30T09:39:19;77599.44;;;-141.64;79.68
47753;BME280;2038;51.728;6.674;2024-01-30T09:41:51;77583.81;;;-141.64;79.15
47753;BME280;2038;51.728;6.674;2024-01-30T09:44:29;77579.94;;;-141.64;79.17
47753;BME280;2038;51.728;6.674;2024-01-30T09:46:56;77568.22;;;-141.64;78.86
47753;BME280;2038;51.728;6.674;2024-01-30T09:49:31;77564.31;;;-141.64;78.84
47753;BME280;2038;51.728;6.674;2024-01-30T09:51:59;77554.53;;;-141.64;78.51
47753;BME280;2038;51.728;6.674;2024-01-30T09:54:26;77536.97;;;-141.64;78.65
47753;BME280;2038;51.728;6.674;2024-01-30T09:56:52;77523.28;;;-141.64;78.70
47753;BME280;2038;51.728;6.674;2024-01-30T09:59:18;77509.63;;;-141.64;78.18
47753;BME280;2038;51.728;6.674;2024-01-30T10:01:44;77497.91;;;-141.64;78.06
47753;BME280;2038;51.728;6.674;2024-01-30T10:04:11;77490.09;;;-141.64;77.80
47753;BME280;2038;51.728;6.674;2024-01-30T10:06:38;77490.09;;;-141.64;77.72
47753;BME280;2038;51.728;6.674;2024-01-30T10:09:06;77492.03;;;-141.64;77.91
47753;BME280;2038;51.728;6.674;2024-01-30T10:11:32;77492.03;;;-141.64;77.58
47753;BME280;2038;51.728;6.674;2024-01-30T10:13:59;77492.03;;;-141.64;77.62
47753;BME280;2038;51.728;6.674;2024-01-30T10:16:26;77488.13;;;-141.64;77.67
47753;BME280;2038;51.728;6.674;2024-01-30T10:18:52;77480.31;;;-141.64;77.42
47753;BME280;2038;51.728;6.674;2024-01-30T10:21:18;77482.28;;;-141.64;77.17
47753;BME280;2038;51.728;6.674;2024-01-30T10:23:45;77480.31;;;-141.64;77.38
47753;BME280;2038;51.728;6.674;2024-01-30T10:26:11;77480.31;;;-141.64;77.35
47753;BME280;2038;51.728;6.674;2024-01-30T10:28:37;77482.28;;;-141.64;77.00
47753;BME280;2038;51.728;6.674;2024-01-30T10:31:04;77466.66;;;-141.64;77.25
47753;BME280;2038;51.728;6.674;2024-01-30T10:33:33;77464.69;;;-141.64;77.30
47753;BME280;2038;51.728;6.674;2024-01-30T10:36:04;77462.75;;;-141.64;77.30
47753;BME280;2038;51.728;6.674;2024-01-30T10:38:31;77464.69;;;-141.64;77.24
47753;BME280;2038;51.728;6.674;2024-01-30T10:41:00;77458.84;;;-141.64;77.20
47753;BME280;2038;51.728;6.674;2024-01-30T10:43:36;77451.03;;;-141.64;76.95
47753;BME280;2038;51.728;6.674;2024-01-30T10:46:19;77437.34;;;-141.64;77.29
47753;BME280;2038;51.728;6.674;2024-01-30T10:48:57;77433.44;;;-141.64;77.09
47753;BME280;2038;51.728;6.674;2024-01-30T10:51:28;77425.63;;;-141.64;77.05
47753;BME280;2038;51.728;6.674;2024-01-30T10:53:56;77425.63;;;-141.64;76.95
47753;BME280;2038;51.728;6.674;2024-01-30T10:56:23;77429.53;;;-141.64;76.34
47753;BME280;2038;51.728;6.674;2024-01-30T10:58:52;77425.63;;;-141.64;76.57
47753;BME280;2038;51.728;6.674;2024-01-30T11:01:23;77419.78;;;-141.64;76.38
47753;BME280;2038;51.728;6.674;2024-01-30T11:03:54;77415.88;;;-141.64;76.38
47753;BME280;2038;51.728;6.674;2024-01-30T11:06:26;77410.00;;;-141.64;76.40
47753;BME280;2038;51.728;6.674;2024-01-30T11:09:02;77408.06;;;-141.64;76.34
47753;BME280;2038;51.728;6.674;2024-01-30T11:11:57;77394.38;;;-141.64;75.98
47753;BME280;2038;51.728;6.674;2024-01-30T11:14:29;77392.44;;;-141.64;75.96
47753;BME280;2038;51.728;6.674;2024-01-30T11:16:59;77392.44;;;-141.64;76.17
47753;BME280;2038;51.728;6.674;2024-01-30T11:19:26;77378.75;;;-141.64;76.11
47753;BME280;2038;51.728;6.674;2024-01-30T11:21:53;77382.66;;;-141.64;76.18
47753;BME280;2038;51.728;6.674;2024-01-30T11:24:21;77369.00;;;-141.64;76.45
47753;BME280;2038;51.728;6.674;2024-01-30T11:26:49;77361.19;;;-141.64;76.83
47753;BME280;2038;51.728;6.674;2024-01-30T11:29:24;77355.34;;;-141.64;76.43
47753;BME280;2038;51.728;6.674;2024-01-30T11:31:58;77365.09;;;-141.64;76.20
47753;BME280;2038;51.728;6.674;2024-01-30T11:34:25;77359.22;;;-141.64;76.17
47753;BME280;2038;51.728;6.674;2024-01-30T11:36:59;77361.19;;;-141.64;76.28
47753;BME280;2038;51.728;6.674;2024-01-30T11:39:32;77378.75;;;-141.64;76.70
47753;BME280;2038;51.728;6.674;2024-01-30T11:41:59;77380.72;;;-141.64;76.84
47753;BME280;2038;51.728;6.674;2024-01-30T11:44:25;77374.84;;;-141.64;76.87
47753;BME280;2038;51.728;6.674;2024-01-30T11:46:52;77376.81;;;-141.64;76.98
47753;BME280;2038;51.728;6.674;2024-01-30T11:49:19;77369.00;;;-141.64;77.25
47753;BME280;2038;51.728;6.674;2024-01-30T11:51:48;77370.94;;;-141.64;77.36
47753;BME280;2038;51.728;6.674;2024-01-30T11:54:15;77372.91;;;-141.64;76.92
47753;BME280;2038;51.728;6.674;2024-01-30T11:56:42;77369.00;;;-141.64;76.63
47753;BME280;2038;51.728;6.674;2024-01-30T11:59:09;77357.28;;;-141.64;76.83
47753;BME280;2038;51.728;6.674;2024-01-30T12:01:36;77357.28;;;-141.64;76.86
47753;BME280;2038;51.728;6.674;2024-01-30T12:04:02;77353.38;;;-141.64;76.91
47753;BME280;2038;51.728;6.674;2024-01-30T12:06:29;77341.66;;;-141.64;76.96
47753;BME280;2038;51.728;6.674;2024-01-30T12:08:59;77343.63;;;-141.64;77.12
47753;BME280;2038;51.728;6.674;2024-01-30T12:11:29;77343.63;;;-141.64;76.86
47753;BME280;2038;51.728;6.674;2024-01-30T12:13:56;77343.63;;;-141.64;76.77
47753;BME280;2038;51.728;6.674;2024-01-30T12:16:23;77339.72;;;-141.64;76.96
47753;BME280;2038;51.728;6.674;2024-01-30T12:18:49;77335.81;;;-141.64;76.80
47753;BME280;2038;51.728;6.674;2024-01-30T12:21:25;77337.75;;;-141.64;76.49
47753;BME280;2038;51.728;6.674;2024-01-30T12:23:52;77331.91;;;-141.64;76.66
47753;BME280;2038;51.728;6.674;2024-01-30T12:26:18;77326.03;;;-141.64;77.00
47753;BME280;2038;51.728;6.674;2024-01-30T12:28:50;77320.19;;;-141.64;76.96
47753;BME280;2038;51.728;6.674;2024-01-30T12:31:26;77324.09;;;-141.64;76.46
47753;BME280;2038;51.728;6.674;2024-01-30T12:33:53;77314.31;;;-141.64;76.49
47753;BME280;2038;51.728;6.674;2024-01-30T12:36:21;77310.41;;;-141.64;76.48
47753;BME280;2038;51.728;6.674;2024-01-30T12:38:48;77306.50;;;-141.64;76.41
47753;BME280;2038;51.728;6.674;2024-01-30T12:41:14;77300.66;;;-141.64;76.23
47753;BME280;2038;51.728;6.674;2024-01-30T12:43:41;77302.59;;;-141.64;76.78
47753;BME280;2038;51.728;6.674;2024-01-30T12:46:08;77306.50;;;-141.64;76.72
47753;BME280;2038;51.728;6.674;2024-01-30T12:48:34;77294.78;;;-141.64;76.43